Time;durP1;ratioP1;P1;durP2;ratioP2;P2;SDS_P1;SDS_P2;PMS_P1;PMS_P2;Temp;Humidity;BMP_temperature;BMP_pressure;BME280_temperature;BME280_humidity;BME280_pressure;Samples;Min_cycle;Max_cycle;Signal;HPM_P1;HPM_P2
2023/05/31 00:04:49;;;;;;;;;;;;;;;13.13;93.58;102534.47;10546407;28;19924;-70
2023/05/31 00:09:51;;;;;;;;;;;;;;;12.95;95.61;102538.72;10527314;28;19925;-70
2023/05/31 00:14:53;;;;;;;;;;;;;;;12.86;95.77;102547.81;10506005;28;20280;-70
2023/05/31 00:19:55;;;;;;;;;;;;;;;13.02;94.74;102532.28;10501969;28;19931;-69
2023/05/31 00:24:58;;;;;;;;;;;;;;;12.86;97.07;102541.69;10506433;28;19933;-70
2023/05/31 00:30:00;;;;;;;;;;;;;;;13.07;94.17;102535.59;10503637;28;19930;-70
2023/05/31 00:35:02;;;;;;;;;;;;;;;12.85;93.92;102537.38;10505116;28;19924;-70
2023/05/31 00:40:05;;;;;;;;;;;;;;;12.66;99.28;102530.19;10508098;28;19924;-70
2023/05/31 00:45:08;;;;;;;;;;;;;;;12.64;99.69;102538.13;10526645;28;19931;-70
2023/05/31 00:50:10;;;;;;;;;;;;;;;12.50;100.00;102535.16;10544998;28;19938;-70
2023/05/31 00:55:13;;;;;;;;;;;;;;;12.81;98.45;102544.53;10529112;28;20015;-70
2023/05/31 01:00:15;;;;;;;;;;;;;;;12.49;100.00;102556.22;10528772;28;20006;-70
2023/05/31 01:05:17;;;;;;;;;;;;;;;12.61;99.03;102546.13;10544011;28;19982;-70
2023/05/31 01:10:20;;;;;;;;;;;;;;;12.04;100.00;102545.59;10542291;28;19924;-70
2023/05/31 01:15:23;;;;;;;;;;;;;;;12.36;100.00;102547.97;10544084;28;19924;-70
2023/05/31 01:20:25;;;;;;;;;;;;;;;12.33;100.00;102556.81;10528031;28;19924;-70
2023/05/31 01:25:35;;;;;;;;;;;;;;;12.21;100.00;102554.66;10527095;28;19990;-70
2023/05/31 01:30:38;;;;;;;;;;;;;;;12.24;100.00;102551.91;10524105;28;19931;-70
2023/05/31 01:35:40;;;;;;;;;;;;;;;12.26;100.00;102550.94;10545295;28;20015;-69
2023/05/31 01:40:43;;;;;;;;;;;;;;;12.08;100.00;102556.84;10545063;28;20418;-70
2023/05/31 01:45:45;;;;;;;;;;;;;;;12.22;100.00;102544.09;10542714;28;19924;-70
2023/05/31 01:50:47;;;;;;;;;;;;;;;11.97;100.00;102544.09;10540147;28;20373;-70
2023/05/31 01:55:49;;;;;;;;;;;;;;;12.15;100.00;102555.69;10544462;28;19925;-70
2023/05/31 02:00:51;;;;;;;;;;;;;;;12.08;100.00;102554.22;10542335;28;19924;-70
2023/05/31 02:05:57;;;;;;;;;;;;;;;12.12;100.00;102547.97;10526046;28;19928;-70
2023/05/31 02:10:59;;;;;;;;;;;;;;;12.13;100.00;102538.31;10540601;28;20359;-70
2023/05/31 02:16:03;;;;;;;;;;;;;;;11.91;100.00;102544.31;10525922;28;19960;-70
2023/05/31 02:21:06;;;;;;;;;;;;;;;11.94;100.00;102541.59;10540770;28;20298;-70
2023/05/31 02:26:08;;;;;;;;;;;;;;;11.80;100.00;102539.44;10521144;22;20011;-66
2023/05/31 02:31:10;;;;;;;;;;;;;;;11.96;100.00;102539.75;10540379;28;19924;-67
2023/05/31 02:36:13;;;;;;;;;;;;;;;12.01;100.00;102550.94;10524837;28;19952;-67
2023/05/31 02:41:15;;;;;;;;;;;;;;;11.66;100.00;102550.38;10521680;28;20397;-66
2023/05/31 02:46:17;;;;;;;;;;;;;;;11.53;100.00;102544.69;10538231;28;20026;-67
2023/05/31 02:51:20;;;;;;;;;;;;;;;11.61;100.00;102547.03;10542275;28;19924;-67
2023/05/31 02:56:23;;;;;;;;;;;;;;;11.55;100.00;102544.66;10541382;28;19946;-67
2023/05/31 03:01:25;;;;;;;;;;;;;;;11.57;100.00;102534.09;10540169;28;19935;-67
2023/05/31 03:06:28;;;;;;;;;;;;;;;11.79;100.00;102524.56;10530796;28;19970;-67
2023/05/31 03:11:30;;;;;;;;;;;;;;;11.61;100.00;102535.69;10540840;28;20015;-67
2023/05/31 03:16:33;;;;;;;;;;;;;;;11.64;100.00;102530.34;10541280;28;19967;-67
2023/05/31 03:21:36;;;;;;;;;;;;;;;11.44;100.00;102531.88;10538496;28;19923;-66
2023/05/31 03:26:38;;;;;;;;;;;;;;;11.30;100.00;102534.97;10540296;28;20387;-67
2023/05/31 03:31:41;;;;;;;;;;;;;;;11.45;100.00;102538.84;10540187;28;20006;-67
2023/05/31 03:36:43;;;;;;;;;;;;;;;11.38;100.00;102525.97;10528972;28;19978;-67
2023/05/31 03:41:45;;;;;;;;;;;;;;;11.47;100.00;102528.31;10540566;28;19964;-67
2023/05/31 03:46:48;;;;;;;;;;;;;;;11.43;100.00;102524.06;10539991;28;20398;-67
2023/05/31 03:51:50;;;;;;;;;;;;;;;11.38;100.00;102521.63;10537538;28;20526;-67
2023/05/31 03:56:52;;;;;;;;;;;;;;;11.55;100.00;102522.78;10537023;28;19925;-67
2023/05/31 04:01:55;;;;;;;;;;;;;;;11.55;100.00;102526.28;10530083;28;20015;-67
2023/05/31 04:06:58;;;;;;;;;;;;;;;11.45;100.00;102525.72;10540163;28;20011;-67
2023/05/31 04:12:02;;;;;;;;;;;;;;;11.49;100.00;102532.56;10536754;28;19963;-67
2023/05/31 04:17:05;;;;;;;;;;;;;;;11.37;100.00;102537.41;10538030;28;20019;-67
2023/05/31 04:22:07;;;;;;;;;;;;;;;11.26;100.00;102537.72;10539975;28;19931;-67
2023/05/31 04:27:10;;;;;;;;;;;;;;;11.48;100.00;102544.00;10536735;28;19933;-67
2023/05/31 04:32:15;;;;;;;;;;;;;;;11.78;100.00;102550.88;10555483;28;19931;-67
2023/05/31 04:37:17;;;;;;;;;;;;;;;11.64;100.00;102554.81;10539102;28;19978;-67
2023/05/31 04:42:20;;;;;;;;;;;;;;;11.76;100.00;102548.28;10537705;28;19924;-67
2023/05/31 04:47:22;;;;;;;;;;;;;;;12.05;100.00;102535.94;10538358;28;19939;-67
2023/05/31 04:52:27;;;;;;;;;;;;;;;11.98;100.00;102540.56;10504481;28;19931;-67
2023/05/31 04:57:29;;;;;;;;;;;;;;;11.59;100.00;102546.25;10524028;28;20297;-67
2023/05/31 05:02:33;;;;;;;;;;;;;;;12.33;100.00;102548.94;10546616;28;19924;-67
2023/05/31 05:07:36;;;;;;;;;;;;;;;11.88;100.00;102542.63;10526094;28;19928;-67
2023/05/31 05:12:38;;;;;;;;;;;;;;;12.34;100.00;102553.28;10538106;28;19924;-67
2023/05/31 05:17:41;;;;;;;;;;;;;;;12.38;100.00;102554.03;10545936;28;19931;-67
2023/05/31 05:22:48;;;;;;;;;;;;;;;12.12;100.00;102550.59;10539770;28;20405;-67
2023/05/31 05:27:51;;;;;;;;;;;;;;;12.48;100.00;102550.13;10527163;28;19924;-67
2023/05/31 05:32:53;;;;;;;;;;;;;;;12.20;100.00;102555.53;10545314;28;19924;-67
2023/05/31 05:37:57;;;;;;;;;;;;;;;12.58;100.00;102563.78;10539809;28;20022;-67
2023/05/31 05:42:59;;;;;;;;;;;;;;;12.71;100.00;102559.78;10542378;28;19924;-67
2023/05/31 05:48:03;;;;;;;;;;;;;;;12.88;100.00;102560.88;10506304;28;19946;-67
2023/05/31 05:53:06;;;;;;;;;;;;;;;12.74;100.00;102557.03;10485170;28;19982;-67
2023/05/31 05:58:08;;;;;;;;;;;;;;;12.72;100.00;102564.09;10505023;28;20022;-67
2023/05/31 06:03:11;;;;;;;;;;;;;;;12.90;100.00;102554.66;10543650;28;19924;-67
2023/05/31 06:08:13;;;;;;;;;;;;;;;13.23;100.00;102559.50;10543263;28;20328;-67
2023/05/31 06:13:15;;;;;;;;;;;;;;;12.86;100.00;102557.47;10540496;28;19950;-67
2023/05/31 06:18:18;;;;;;;;;;;;;;;13.27;100.00;102557.59;10534140;28;20267;-67
2023/05/31 06:23:20;;;;;;;;;;;;;;;13.25;100.00;102556.81;10543282;28;19968;-67
2023/05/31 06:28:22;;;;;;;;;;;;;;;13.40;100.00;102552.69;10540580;28;19930;-67
2023/05/31 06:33:25;;;;;;;;;;;;;;;13.62;100.00;102553.53;10540876;28;19933;-67
2023/05/31 06:38:27;;;;;;;;;;;;;;;13.47;100.00;102549.78;10542260;28;20022;-67
2023/05/31 06:43:29;;;;;;;;;;;;;;;13.86;97.71;102540.25;10485600;28;20282;-67
2023/05/31 06:48:31;;;;;;;;;;;;;;;14.08;97.87;102546.25;10488716;28;19931;-67
2023/05/31 06:53:34;;;;;;;;;;;;;;;14.52;95.67;102537.25;10525379;28;19924;-67
2023/05/31 06:58:36;;;;;;;;;;;;;;;14.52;95.43;102544.31;10500035;28;20376;-67
2023/05/31 07:03:38;;;;;;;;;;;;;;;15.01;93.25;102547.31;10481315;28;19925;-67
2023/05/31 07:08:40;;;;;;;;;;;;;;;15.09;93.19;102546.94;10480738;28;19940;-67
2023/05/31 07:13:43;;;;;;;;;;;;;;;15.39;88.07;102534.03;10533719;28;19946;-67
2023/05/31 07:18:46;;;;;;;;;;;;;;;15.92;85.91;102537.50;10517364;28;19924;-67
2023/05/31 07:23:48;;;;;;;;;;;;;;;16.07;86.33;102531.44;10526740;28;19924;-67
2023/05/31 07:28:53;;;;;;;;;;;;;;;17.43;79.81;102532.69;10526460;28;19924;-67
2023/05/31 07:33:56;;;;;;;;;;;;;;;17.78;78.15;102518.25;10491914;28;19938;-68
2023/05/31 07:38:59;;;;;;;;;;;;;;;17.58;77.22;102519.47;10492341;28;19924;-68
2023/05/31 07:44:02;;;;;;;;;;;;;;;18.33;75.48;102517.53;10497279;28;19972;-68
2023/05/31 07:49:05;;;;;;;;;;;;;;;18.29;71.41;102513.38;10523064;28;19924;-68
2023/05/31 07:54:07;;;;;;;;;;;;;;;18.88;72.56;102520.28;10536666;28;19924;-67
2023/05/31 07:59:09;;;;;;;;;;;;;;;18.62;69.72;102512.16;10534706;28;19931;-68
2023/05/31 08:04:12;;;;;;;;;;;;;;;18.48;71.08;102509.56;10512870;28;19924;-67
2023/05/31 08:09:14;;;;;;;;;;;;;;;19.62;68.21;102500.25;10515510;28;19924;-68
2023/05/31 08:14:16;;;;;;;;;;;;;;;20.50;67.26;102499.38;10516658;28;19924;-68
2023/05/31 08:19:19;;;;;;;;;;;;;;;20.68;65.89;102496.34;10523095;28;19998;-67
2023/05/31 08:24:21;;;;;;;;;;;;;;;20.68;67.18;102507.00;10513761;28;19931;-68
2023/05/31 08:29:23;;;;;;;;;;;;;;;21.64;64.45;102495.41;10488384;28;20286;-68
2023/05/31 08:34:25;;;;;;;;;;;;;;;21.74;63.63;102482.16;10503024;28;19928;-68
2023/05/31 08:39:28;;;;;;;;;;;;;;;20.48;64.96;102488.00;10546881;28;20286;-68
2023/05/31 08:44:30;;;;;;;;;;;;;;;21.67;63.95;102482.66;10505365;28;19924;-68
2023/05/31 08:49:34;;;;;;;;;;;;;;;21.45;62.59;102474.59;10512925;28;19924;-68
2023/05/31 08:54:36;;;;;;;;;;;;;;;22.25;61.34;102479.00;10523121;28;20386;-67
2023/05/31 08:59:39;;;;;;;;;;;;;;;21.78;61.21;102475.66;10528942;28;20010;-67
2023/05/31 09:04:41;;;;;;;;;;;;;;;21.70;60.92;102477.09;10546702;28;19925;-67
2023/05/31 09:09:43;;;;;;;;;;;;;;;23.12;58.84;102467.47;10528592;28;19986;-67
2023/05/31 09:14:45;;;;;;;;;;;;;;;22.53;59.63;102466.97;10546254;28;20078;-67
2023/05/31 09:19:52;;;;;;;;;;;;;;;22.97;55.55;102464.25;10546080;28;19930;-67
2023/05/31 09:24:58;;;;;;;;;;;;;;;23.69;56.10;102465.25;10527818;28;19931;-67
2023/05/31 09:30:11;;;;;;;;;;;;;;;23.57;55.83;102448.47;10527570;28;19927;-67
2023/05/31 09:35:14;;;;;;;;;;;;;;;23.72;55.71;102448.94;10526585;28;19930;-67
2023/05/31 09:40:26;;;;;;;;;;;;;;;24.56;55.12;102448.66;10544694;28;20393;-67
2023/05/31 09:45:28;;;;;;;;;;;;;;;23.12;54.72;102438.09;10527243;28;19931;-67
2023/05/31 09:50:30;;;;;;;;;;;;;;;23.81;58.34;102441.94;10527058;28;20011;-67
2023/05/31 09:55:40;;;;;;;;;;;;;;;24.21;55.38;102433.06;10544731;28;20014;-67
2023/05/31 10:00:47;;;;;;;;;;;;;;;25.48;52.04;102420.44;10544502;28;19931;-67
2023/05/31 10:05:49;;;;;;;;;;;;;;;24.36;52.24;102420.97;10525738;28;19930;-67
2023/05/31 10:10:53;;;;;;;;;;;;;;;26.46;50.09;102406.44;10543435;28;20286;-68
2023/05/31 10:15:56;;;;;;;;;;;;;;;26.12;52.96;102402.59;10543993;28;19931;-68
2023/05/31 10:21:02;;;;;;;;;;;;;;;26.32;49.58;102400.63;10543680;28;19959;-68
2023/05/31 10:26:06;;;;;;;;;;;;;;;24.76;49.41;102408.44;10542710;28;20011;-68
2023/05/31 10:31:11;;;;;;;;;;;;;;;25.78;47.49;102384.44;10543413;28;19930;-68
2023/05/31 10:36:13;;;;;;;;;;;;;;;26.17;47.59;102391.41;10524854;28;19924;-68
2023/05/31 10:41:16;;;;;;;;;;;;;;;27.75;46.89;102378.91;10525010;28;19924;-68
2023/05/31 10:46:27;;;;;;;;;;;;;;;27.14;45.84;102375.44;10525698;28;19928;-68
2023/05/31 10:51:39;;;;;;;;;;;;;;;27.48;45.24;102371.91;10541777;28;19970;-68
2023/05/31 10:56:41;;;;;;;;;;;;;;;27.14;46.26;102360.13;10524770;28;19930;-68
2023/05/31 11:01:43;;;;;;;;;;;;;;;27.52;43.68;102355.31;10506962;28;19930;-68
2023/05/31 11:06:46;;;;;;;;;;;;;;;27.79;43.35;102362.28;10523289;28;20298;-68
2023/05/31 11:11:49;;;;;;;;;;;;;;;27.43;42.94;102351.72;10523747;28;19924;-68
2023/05/31 11:16:56;;;;;;;;;;;;;;;25.88;45.64;102352.19;10540938;28;20355;-68
2023/05/31 11:22:08;;;;;;;;;;;;;;;28.01;44.91;102345.66;10540793;28;20378;-68
2023/05/31 11:27:11;;;;;;;;;;;;;;;27.58;43.17;102337.66;10540688;28;19978;-68
2023/05/31 11:32:36;;;;;;;;;;;;;;;29.09;41.63;102345.44;10540954;28;20437;-68
2023/05/31 11:37:40;;;;;;;;;;;;;;;30.05;42.19;102337.25;10532145;28;20086;-68
2023/05/31 11:42:43;;;;;;;;;;;;;;;28.49;39.91;102325.16;10522560;28;20362;-68
2023/05/31 11:47:45;;;;;;;;;;;;;;;29.74;38.43;102324.59;10540148;28;19924;-68
2023/05/31 11:52:47;;;;;;;;;;;;;;;30.09;40.55;102322.34;10540653;28;19971;-68
2023/05/31 11:57:53;;;;;;;;;;;;;;;30.15;40.71;102316.22;10535482;28;19924;-68
2023/05/31 12:03:04;;;;;;;;;;;;;;;29.25;40.81;102312.19;10554586;28;19928;-68
2023/05/31 12:08:12;;;;;;;;;;;;;;;28.06;41.61;102313.72;10554368;28;19928;-68
2023/05/31 12:13:17;;;;;;;;;;;;;;;30.21;38.75;102293.88;10553554;28;20283;-69
2023/05/31 12:18:20;;;;;;;;;;;;;;;29.48;39.23;102293.38;10554174;28;19963;-68
2023/05/31 12:23:22;;;;;;;;;;;;;;;29.06;40.79;102300.78;10536159;28;19930;-69
2023/05/31 12:28:24;;;;;;;;;;;;;;;29.96;39.67;102287.88;10535196;28;20282;-68
2023/05/31 12:33:30;;;;;;;;;;;;;;;29.34;40.37;102291.44;10553127;28;20298;-67
2023/05/31 12:38:34;;;;;;;;;;;;;;;30.00;36.70;102279.22;10553165;28;20367;-67
2023/05/31 12:43:36;;;;;;;;;;;;;;;30.28;37.42;102264.28;10553037;28;19934;-67
2023/05/31 12:48:41;;;;;;;;;;;;;;;29.87;39.45;102254.69;10553570;28;19931;-67
2023/05/31 12:53:45;;;;;;;;;;;;;;;28.67;38.05;102261.16;10552737;28;20385;-66
2023/05/31 12:58:47;;;;;;;;;;;;;;;29.70;39.23;102255.81;10553266;28;19924;-67
2023/05/31 13:03:49;;;;;;;;;;;;;;;28.53;41.07;102241.16;10535329;28;19931;-67
2023/05/31 13:08:52;;;;;;;;;;;;;;;29.44;39.80;102240.81;10547491;28;19924;-68
2023/05/31 13:13:54;;;;;;;;;;;;;;;29.15;38.96;102245.00;10546349;28;19931;-68
2023/05/31 13:18:57;;;;;;;;;;;;;;;29.57;40.17;102242.91;10546178;28;19928;-67
2023/05/31 13:23:59;;;;;;;;;;;;;;;29.74;38.59;102239.06;10545737;28;19931;-68
2023/05/31 13:29:02;;;;;;;;;;;;;;;30.28;38.33;102230.03;10545278;28;20010;-67
2023/05/31 13:34:04;;;;;;;;;;;;;;;29.94;38.87;102235.91;10527264;28;20370;-67
2023/05/31 13:39:07;;;;;;;;;;;;;;;29.70;38.43;102226.94;10544977;28;20289;-67
2023/05/31 13:44:09;;;;;;;;;;;;;;;28.28;38.73;102223.38;10545346;28;19930;-67
2023/05/31 13:49:15;;;;;;;;;;;;;;;31.17;37.44;102217.50;10526575;28;20393;-67
2023/05/31 13:54:17;;;;;;;;;;;;;;;28.68;38.30;102214.38;10544790;28;19931;-68
2023/05/31 13:59:20;;;;;;;;;;;;;;;28.03;39.88;102212.63;10526778;28;19930;-67
2023/05/31 14:04:22;;;;;;;;;;;;;;;30.19;37.52;102207.66;10543775;28;20359;-67
2023/05/31 14:09:26;;;;;;;;;;;;;;;28.85;37.45;102198.97;10544247;28;19924;-67
2023/05/31 14:14:28;;;;;;;;;;;;;;;30.61;37.00;102194.53;10543949;28;19999;-67
2023/05/31 14:19:31;;;;;;;;;;;;;;;29.11;40.18;102197.81;10524707;28;20310;-67
2023/05/31 14:24:33;;;;;;;;;;;;;;;29.65;37.58;102187.00;10543283;28;20374;-67
2023/05/31 14:29:35;;;;;;;;;;;;;;;29.48;38.84;102177.38;10543221;28;20252;-66
2023/05/31 14:34:37;;;;;;;;;;;;;;;27.31;39.44;102178.25;10534463;28;19928;-67
2023/05/31 14:39:40;;;;;;;;;;;;;;;29.65;39.00;102165.41;10509572;22;20011;-73
2023/05/31 14:44:42;;;;;;;;;;;;;;;29.72;37.54;102164.69;10459463;28;19925;-73
2023/05/31 14:49:44;;;;;;;;;;;;;;;28.69;38.09;102161.31;10458285;28;19931;-73
2023/05/31 14:54:47;;;;;;;;;;;;;;;30.43;36.09;102164.38;10457983;28;19928;-73
2023/05/31 14:59:49;;;;;;;;;;;;;;;29.95;37.28;102159.28;10458367;28;19947;-73
2023/05/31 15:04:51;;;;;;;;;;;;;;;28.74;39.93;102158.09;10458773;28;19967;-73
2023/05/31 15:09:53;;;;;;;;;;;;;;;30.75;38.09;102144.22;10458592;28;19931;-73
2023/05/31 15:14:56;;;;;;;;;;;;;;;28.37;39.40;102146.09;10457637;28;20294;-73
2023/05/31 15:19:58;;;;;;;;;;;;;;;27.37;39.03;102147.16;10457608;28;20016;-73
2023/05/31 15:25:03;;;;;;;;;;;;;;;28.54;38.39;102145.81;10458139;28;19924;-72
2023/05/31 15:30:05;;;;;;;;;;;;;;;29.07;39.90;102148.81;10457075;28;19931;-73
2023/05/31 15:35:08;;;;;;;;;;;;;;;28.06;38.44;102146.81;10457230;28;19928;-72
2023/05/31 15:40:10;;;;;;;;;;;;;;;29.49;38.61;102140.44;10457028;28;19925;-73
2023/05/31 15:45:12;;;;;;;;;;;;;;;28.06;38.87;102131.53;10455662;28;19931;-73
2023/05/31 15:50:14;;;;;;;;;;;;;;;29.18;38.77;102135.94;10456758;28;20386;-72
2023/05/31 15:55:17;;;;;;;;;;;;;;;29.33;38.37;102123.38;10457229;28;19931;-72
2023/05/31 16:00:19;;;;;;;;;;;;;;;27.98;39.43;102126.16;10456795;28;19925;-72
2023/05/31 16:05:22;;;;;;;;;;;;;;;28.12;40.71;102117.34;10455900;28;19925;-72
2023/05/31 16:10:24;;;;;;;;;;;;;;;27.47;39.51;102112.91;10457057;28;19932;-72
2023/05/31 16:15:26;;;;;;;;;;;;;;;27.36;40.70;102110.53;10456191;28;20286;-72
2023/05/31 16:20:28;;;;;;;;;;;;;;;27.98;41.59;102105.44;10455077;28;20303;-72
2023/05/31 16:25:32;;;;;;;;;;;;;;;28.43;41.46;102102.28;10456923;28;19931;-73
2023/05/31 16:30:34;;;;;;;;;;;;;;;28.13;41.18;102094.81;10456665;28;19964;-72
2023/05/31 16:35:36;;;;;;;;;;;;;;;27.64;39.56;102094.03;10456485;28;19925;-72
2023/05/31 16:40:38;;;;;;;;;;;;;;;27.03;41.17;102102.38;10457540;28;19924;-72
2023/05/31 16:45:40;;;;;;;;;;;;;;;26.89;42.01;102095.81;10463516;28;20279;-72
2023/05/31 16:50:43;;;;;;;;;;;;;;;26.73;42.97;102085.03;10446463;28;19952;-72
2023/05/31 16:55:45;;;;;;;;;;;;;;;26.73;43.46;102085.88;10463748;28;19932;-71
2023/05/31 17:00:47;;;;;;;;;;;;;;;26.54;43.75;102086.13;10462999;28;20414;-71
2023/05/31 17:05:50;;;;;;;;;;;;;;;26.35;43.38;102074.63;10463481;28;19964;-72
2023/05/31 17:10:52;;;;;;;;;;;;;;;25.59;45.55;102079.69;10461500;28;20291;-72
2023/05/31 17:15:54;;;;;;;;;;;;;;;25.35;46.35;102066.09;10462992;28;20011;-72
2023/05/31 17:20:58;;;;;;;;;;;;;;;25.01;47.96;102080.16;10462955;28;19931;-72
2023/05/31 17:26:00;;;;;;;;;;;;;;;25.07;48.40;102071.50;10462005;28;20350;-71
2023/05/31 17:31:04;;;;;;;;;;;;;;;24.84;49.35;102077.28;10462392;28;19975;-72
2023/05/31 17:36:06;;;;;;;;;;;;;;;24.94;48.90;102069.19;10460954;28;19931;-66
2023/05/31 17:41:09;;;;;;;;;;;;;;;24.43;49.79;102065.25;10490591;28;19968;-66
2023/05/31 17:46:14;;;;;;;;;;;;;;;24.25;50.41;102067.88;10501808;28;20330;-66
2023/05/31 17:51:16;;;;;;;;;;;;;;;24.23;51.86;102073.38;10502217;28;19947;-66
2023/05/31 17:56:18;;;;;;;;;;;;;;;23.99;51.72;102073.88;10501883;28;19924;-67
2023/05/31 18:01:21;;;;;;;;;;;;;;;24.16;52.29;102066.94;10502195;28;19931;-66
2023/05/31 18:06:23;;;;;;;;;;;;;;;23.90;53.31;102067.56;10502650;28;19931;-66
2023/05/31 18:11:25;;;;;;;;;;;;;;;23.78;52.88;102057.16;10502408;28;20007;-66
2023/05/31 18:16:30;;;;;;;;;;;;;;;22.98;54.50;102065.31;10501324;28;20292;-66
2023/05/31 18:21:32;;;;;;;;;;;;;;;23.13;54.42;102063.97;10502015;28;19924;-67
2023/05/31 18:26:35;;;;;;;;;;;;;;;22.73;54.37;102066.66;10500943;28;20369;-66
2023/05/31 18:31:37;;;;;;;;;;;;;;;22.48;54.93;102062.66;10501491;28;19931;-66
2023/05/31 18:36:41;;;;;;;;;;;;;;;22.34;55.38;102064.75;10499386;28;20354;-65
2023/05/31 18:41:43;;;;;;;;;;;;;;;22.55;55.38;102069.19;10500278;28;20371;-65
2023/05/31 18:46:45;;;;;;;;;;;;;;;22.20;56.42;102068.56;10499786;28;19924;-66
2023/05/31 18:51:48;;;;;;;;;;;;;;;22.28;56.49;102070.63;10500597;28;19928;-66
2023/05/31 18:56:52;;;;;;;;;;;;;;;22.16;56.14;102064.50;10499941;28;19928;-65
2023/05/31 19:01:54;;;;;;;;;;;;;;;21.91;57.29;102065.78;10500237;28;19924;-66
2023/05/31 19:06:57;;;;;;;;;;;;;;;21.80;57.93;102071.16;10499944;28;19956;-66
2023/05/31 19:12:00;;;;;;;;;;;;;;;21.74;58.04;102071.69;10499900;28;19933;-66
2023/05/31 19:17:02;;;;;;;;;;;;;;;20.89;58.46;102081.31;10499725;28;19931;-66
2023/05/31 19:22:07;;;;;;;;;;;;;;;20.80;59.19;102080.25;10499681;28;19924;-66
2023/05/31 19:27:09;;;;;;;;;;;;;;;20.88;58.83;102085.81;10498839;28;20262;-66
2023/05/31 19:32:12;;;;;;;;;;;;;;;20.54;60.03;102090.28;10499268;28;19925;-66
2023/05/31 19:37:14;;;;;;;;;;;;;;;20.34;59.81;102097.19;10499277;28;19924;-66
2023/05/31 19:42:16;;;;;;;;;;;;;;;20.41;60.33;102106.41;10498449;28;19925;-66
2023/05/31 19:47:18;;;;;;;;;;;;;;;19.94;61.15;102109.13;10498389;28;20290;-66
2023/05/31 19:52:20;;;;;;;;;;;;;;;20.06;60.26;102119.78;10498807;28;19924;-66
2023/05/31 19:57:23;;;;;;;;;;;;;;;20.06;60.05;102117.94;10498813;28;19924;-66
2023/05/31 20:02:27;;;;;;;;;;;;;;;20.04;60.55;102133.19;10497994;28;20216;-66
2023/05/31 20:07:29;;;;;;;;;;;;;;;19.02;63.06;102134.50;10497545;28;19932;-66
2023/05/31 20:12:31;;;;;;;;;;;;;;;19.00;63.02;102137.28;10497884;28;20283;-66
2023/05/31 20:17:33;;;;;;;;;;;;;;;18.69;64.02;102152.69;10502646;28;19925;-66
2023/05/31 20:22:36;;;;;;;;;;;;;;;18.15;66.58;102151.09;10506784;28;20011;-65
2023/05/31 20:27:38;;;;;;;;;;;;;;;18.12;66.96;102159.28;10487905;28;20203;-65
2023/05/31 20:32:40;;;;;;;;;;;;;;;18.63;65.73;102160.25;10506163;28;19925;-66
2023/05/31 20:37:42;;;;;;;;;;;;;;;18.20;66.70;102169.34;10505242;28;19925;-66
2023/05/31 20:42:45;;;;;;;;;;;;;;;17.90;68.40;102170.44;10505195;28;19931;-66
2023/05/31 20:47:47;;;;;;;;;;;;;;;17.79;68.27;102171.13;10505514;28;19931;-66
2023/05/31 20:52:49;;;;;;;;;;;;;;;17.24;71.57;102188.81;10505315;28;19924;-66
2023/05/31 20:57:51;;;;;;;;;;;;;;;17.62;70.33;102189.94;10505107;28;19925;-66
2023/05/31 21:02:54;;;;;;;;;;;;;;;17.51;70.28;102190.63;10504365;28;19924;-66
2023/05/31 21:07:56;;;;;;;;;;;;;;;16.45;73.40;102199.84;10504819;28;19959;-66
2023/05/31 21:12:58;;;;;;;;;;;;;;;16.71;73.52;102200.94;10503904;28;20409;-66
2023/05/31 21:18:00;;;;;;;;;;;;;;;17.06;72.23;102208.50;10503565;28;20398;-67
2023/05/31 21:23:03;;;;;;;;;;;;;;;16.90;72.16;102211.25;10504508;28;19971;-66
2023/05/31 21:28:05;;;;;;;;;;;;;;;16.43;74.34;102214.97;10502748;28;19924;-66
2023/05/31 21:33:07;;;;;;;;;;;;;;;16.56;73.60;102215.94;10503778;28;20024;-66
2023/05/31 21:38:09;;;;;;;;;;;;;;;16.41;74.31;102217.69;10502814;28;20367;-67
2023/05/31 21:43:12;;;;;;;;;;;;;;;15.70;79.16;102218.25;10502764;28;19925;-67
2023/05/31 21:48:14;;;;;;;;;;;;;;;16.32;75.21;102224.38;10503331;28;19930;-66
2023/05/31 21:53:16;;;;;;;;;;;;;;;15.72;76.61;102225.16;10503091;28;19924;-66
2023/05/31 21:58:18;;;;;;;;;;;;;;;15.65;77.33;102230.84;10502843;28;19935;-66
2023/05/31 22:03:21;;;;;;;;;;;;;;;15.23;80.22;102239.28;10502124;28;19924;-66
2023/05/31 22:08:23;;;;;;;;;;;;;;;15.51;79.87;102242.19;10502181;28;20363;-66
2023/05/31 22:13:29;;;;;;;;;;;;;;;15.97;76.36;102237.00;10502191;28;19924;-66
2023/05/31 22:18:32;;;;;;;;;;;;;;;15.34;77.94;102240.47;10502086;28;19931;-66
2023/05/31 22:23:34;;;;;;;;;;;;;;;14.61;83.21;102243.47;10501817;28;19924;-66
2023/05/31 22:28:37;;;;;;;;;;;;;;;14.93;82.07;102251.44;10501651;28;19924;-66
2023/05/31 22:33:39;;;;;;;;;;;;;;;14.97;82.79;102247.72;10500623;28;19928;-66
2023/05/31 22:38:41;;;;;;;;;;;;;;;14.42;84.80;102254.88;10500806;28;20011;-66
2023/05/31 22:43:43;;;;;;;;;;;;;;;14.50;85.50;102250.06;10501089;28;19932;-66
2023/05/31 22:48:46;;;;;;;;;;;;;;;14.73;83.61;102252.53;10500226;28;19924;-66
2023/05/31 22:53:48;;;;;;;;;;;;;;;14.12;88.05;102252.88;10499930;28;20357;-66
2023/05/31 22:58:50;;;;;;;;;;;;;;;13.62;90.55;102260.56;10499755;28;20406;-66
2023/05/31 23:03:52;;;;;;;;;;;;;;;14.09;89.42;102260.91;10500276;28;19924;-66
2023/05/31 23:08:54;;;;;;;;;;;;;;;14.29;87.32;102259.94;10500071;28;19968;-66
2023/05/31 23:14:01;;;;;;;;;;;;;;;13.80;88.20;102261.47;10498189;28;20256;-66
2023/05/31 23:19:05;;;;;;;;;;;;;;;13.98;88.45;102265.00;10499899;28;20034;-66
2023/05/31 23:24:07;;;;;;;;;;;;;;;13.92;89.21;102268.78;10499658;28;19924;-66
2023/05/31 23:29:10;;;;;;;;;;;;;;;13.33;91.24;102273.25;10498806;28;19924;-67
2023/05/31 23:34:13;;;;;;;;;;;;;;;13.35;89.87;102276.72;10498661;28;19924;-66
2023/05/31 23:39:16;;;;;;;;;;;;;;;13.32;91.37;102276.84;10499064;28;19931;-67
2023/05/31 23:44:18;;;;;;;;;;;;;;;13.43;90.63;102284.22;10499046;28;19935;-66
2023/05/31 23:49:21;;;;;;;;;;;;;;;13.02;92.09;102285.13;10498021;28;19973;-67
2023/05/31 23:54:23;;;;;;;;;;;;;;;12.62;93.65;102289.47;10497980;28;19924;-66
2023/05/31 23:59:25;;;;;;;;;;;;;;;12.50;96.95;102280.34;10498961;28;19932;-66
